Time;durP1;ratioP1;P1;durP2;ratioP2;P2;SDS_P1;SDS_P2;PMS_P1;PMS_P2;Temp;Humidity;BMP_temperature;BMP_pressure;BME280_temperature;BME280_humidity;BME280_pressure;Samples;Min_cycle;Max_cycle;Signal;HPM_P1;HPM_P2
2021/05/31 00:01:42;;;;;;;3.58;2.20;;;9.70;60.50;;;;;;5075820;28;20017;-83
2021/05/31 00:04:08;;;;;;;4.82;2.20;;;9.70;60.60;;;;;;5076985;28;20024;-84
2021/05/31 00:06:44;;;;;;;7.78;2.22;;;9.60;60.60;;;;;;5076312;28;20028;-81
2021/05/31 00:09:10;;;;;;;5.57;2.40;;;9.70;60.80;;;;;;5076662;28;20020;-84
2021/05/31 00:11:36;;;;;;;5.82;2.40;;;9.60;60.90;;;;;;5075368;28;20047;-80
2021/05/31 00:14:02;;;;;;;7.82;2.58;;;9.70;61.00;;;;;;5076322;28;20519;-78
2021/05/31 00:16:28;;;;;;;4.28;2.25;;;9.60;61.40;;;;;;5075453;28;20078;-78
2021/05/31 00:18:54;;;;;;;3.83;2.25;;;9.60;61.60;;;;;;5075076;28;20409;-78
2021/05/31 00:21:20;;;;;;;4.88;2.83;;;9.60;61.60;;;;;;5076115;28;20047;-83
2021/05/31 00:23:46;;;;;;;6.78;2.55;;;9.60;61.80;;;;;;5075762;28;20032;-80
2021/05/31 00:26:15;;;;;;;7.25;2.63;;;9.50;62.00;;;;;;5075286;28;20036;-80
2021/05/31 00:28:44;;;;;;;3.60;2.25;;;9.50;62.30;;;;;;5075357;28;20617;-80
2021/05/31 00:31:13;;;;;;;4.15;2.20;;;9.50;62.30;;;;;;5075121;28;20082;-81
2021/05/31 00:33:40;;;;;;;3.92;2.00;;;9.40;62.60;;;;;;5074870;28;20499;-81
2021/05/31 00:36:07;;;;;;;5.03;2.37;;;9.40;62.60;;;;;;5075032;28;20020;-81
2021/05/31 00:38:34;;;;;;;3.97;2.28;;;9.30;62.90;;;;;;5075121;28;20066;-79
2021/05/31 00:41:01;;;;;;;4.60;2.22;;;9.30;63.00;;;;;;5074785;28;20016;-81
2021/05/31 00:43:34;;;;;;;6.38;2.47;;;9.30;63.20;;;;;;5075076;28;20044;-79
2021/05/31 00:46:04;;;;;;;4.72;2.58;;;9.20;63.30;;;;;;5074910;28;20099;-83
2021/05/31 00:48:30;;;;;;;4.38;2.45;;;9.20;63.80;;;;;;5074764;28;20028;-80
2021/05/31 00:50:59;;;;;;;4.38;2.10;;;9.20;63.70;;;;;;5074357;28;20099;-81
2021/05/31 00:53:26;;;;;;;4.55;2.80;;;9.20;63.60;;;;;;5068377;28;20075;-80
2021/05/31 00:55:52;;;;;;;5.13;2.40;;;9.20;63.50;;;;;;5075067;28;20385;-81
2021/05/31 00:58:17;;;;;;;4.38;2.28;;;9.20;63.30;;;;;;5075233;28;20031;-81
2021/05/31 01:00:45;;;;;;;4.95;2.08;;;9.10;63.40;;;;;;5070915;28;20025;-82
2021/05/31 01:03:11;;;;;;;4.03;2.28;;;9.10;63.30;;;;;;5074746;28;20393;-80
2021/05/31 01:05:38;;;;;;;8.15;1.92;;;9.10;63.40;;;;;;5074634;28;20032;-81
2021/05/31 01:08:11;;;;;;;5.95;2.80;;;9.10;63.70;;;;;;5074360;28;20112;-81
2021/05/31 01:11:11;;;;;;;5.25;2.03;;;9.00;64.00;;;;;;5074791;28;20021;-80
2021/05/31 01:14:21;;;;;;;3.88;1.70;;;9.10;63.60;;;;;;5074980;28;20033;-82
2021/05/31 01:17:02;;;;;;;6.50;2.00;;;9.00;63.40;;;;;;4993611;28;20037;-82
2021/05/31 01:20:02;;;;;;;4.32;2.50;;;9.00;63.50;;;;;;4983060;28;20026;-83
2021/05/31 01:22:34;;;;;;;8.05;2.22;;;9.00;63.50;;;;;;5000622;28;20077;-80
2021/05/31 01:25:26;;;;;;;5.70;1.60;;;8.90;63.50;;;;;;5005193;28;20066;-83
2021/05/31 01:28:12;;;;;;;3.70;1.90;;;9.00;63.70;;;;;;4996824;28;20058;-83
2021/05/31 01:30:44;;;;;;;3.88;2.13;;;9.00;63.50;;;;;;4997780;28;20138;-81
2021/05/31 01:33:22;;;;;;;4.57;2.15;;;9.00;63.60;;;;;;4989505;28;20062;-81
2021/05/31 01:35:50;;;;;;;5.30;2.35;;;9.00;63.10;;;;;;4998325;28;20036;-80
2021/05/31 01:38:18;;;;;;;5.05;1.70;;;9.00;63.40;;;;;;4994478;28;20030;-82
2021/05/31 01:40:46;;;;;;;2.38;1.48;;;9.00;63.50;;;;;;4998850;28;20033;-81
2021/05/31 01:43:13;;;;;;;2.92;1.65;;;9.00;63.20;;;;;;4981812;28;20487;-80
2021/05/31 01:45:41;;;;;;;3.90;1.65;;;9.10;63.10;;;;;;4993915;28;20026;-83
2021/05/31 01:48:09;;;;;;;3.67;1.73;;;9.10;63.10;;;;;;4993058;28;20093;-82
2021/05/31 01:50:36;;;;;;;3.00;1.58;;;9.10;63.40;;;;;;5032829;28;20029;-82
2021/05/31 01:53:04;;;;;;;3.53;1.85;;;9.20;63.20;;;;;;5076403;28;20334;-80
2021/05/31 01:55:31;;;;;;;5.47;1.80;;;9.10;62.50;;;;;;5079607;28;20020;-82
2021/05/31 01:57:58;;;;;;;4.65;1.70;;;9.10;62.80;;;;;;5065657;28;20020;-82
2021/05/31 02:00:24;;;;;;;2.72;1.58;;;9.10;62.70;;;;;;5073053;28;20535;-81
2021/05/31 02:02:52;;;;;;;3.83;1.65;;;9.10;62.90;;;;;;5075232;28;20059;-82
2021/05/31 02:05:18;;;;;;;4.95;2.08;;;9.10;63.10;;;;;;5076796;28;20016;-80
2021/05/31 02:07:44;;;;;;;6.53;2.13;;;9.10;62.80;;;;;;5072695;28;20119;-81
2021/05/31 02:10:11;;;;;;;7.82;2.88;;;9.10;63.10;;;;;;5073843;28;20032;-82
2021/05/31 02:12:52;;;;;;;4.30;2.33;;;9.10;63.20;;;;;;5075873;28;20025;-79
2021/05/31 02:15:57;;;;;;;6.60;2.33;;;9.10;63.00;;;;;;5071846;28;20029;-81
2021/05/31 02:18:26;;;;;;;8.38;1.70;;;9.10;63.00;;;;;;5061933;28;20037;-80
2021/05/31 02:21:02;;;;;;;3.20;1.80;;;9.10;63.30;;;;;;5072485;28;20111;-82
2021/05/31 02:23:30;;;;;;;5.70;2.08;;;9.20;62.90;;;;;;5074334;28;20036;-81
2021/05/31 02:25:57;;;;;;;4.97;2.00;;;9.10;62.70;;;;;;5073887;28;20088;-82
2021/05/31 02:28:23;;;;;;;6.60;1.73;;;9.10;62.70;;;;;;5073668;28;20077;-84
2021/05/31 02:30:49;;;;;;;5.25;2.15;;;9.20;63.00;;;;;;5073585;28;20119;-82
2021/05/31 02:33:15;;;;;;;6.03;1.40;;;9.20;63.10;;;;;;5073406;28;20031;-81
2021/05/31 02:35:41;;;;;;;4.18;1.70;;;9.30;62.30;;;;;;5073252;28;20032;-81
2021/05/31 02:38:08;;;;;;;10.80;2.28;;;9.30;62.50;;;;;;5073275;28;20063;-81
2021/05/31 02:40:35;;;;;;;4.22;1.50;;;9.30;62.30;;;;;;5057785;28;20017;-81
2021/05/31 02:43:05;;;;;;;2.17;1.13;;;9.20;62.10;;;;;;5079804;28;20668;-81
2021/05/31 02:45:31;;;;;;;1.95;1.30;;;9.20;62.90;;;;;;5077656;28;20424;-81
2021/05/31 02:47:58;;;;;;;8.07;1.73;;;9.10;63.30;;;;;;5077077;28;20017;-82
2021/05/31 02:50:27;;;;;;;1.92;1.40;;;9.20;63.20;;;;;;5052998;28;20417;-82
2021/05/31 02:52:53;;;;;;;3.20;1.50;;;9.20;62.70;;;;;;5060164;28;20035;-85
2021/05/31 02:55:22;;;;;;;4.00;1.63;;;9.00;63.10;;;;;;5073161;28;20060;-81
2021/05/31 02:57:49;;;;;;;3.42;1.60;;;9.00;63.50;;;;;;5071894;28;20031;-81
2021/05/31 03:00:20;;;;;;;5.68;1.83;;;9.00;63.70;;;;;;5073457;28;20436;-83
2021/05/31 03:02:47;;;;;;;3.80;2.03;;;9.10;63.80;;;;;;5071682;28;20028;-83
2021/05/31 03:05:15;;;;;;;4.80;1.17;;;9.20;63.60;;;;;;5073155;28;20032;-83
2021/05/31 03:07:41;;;;;;;3.92;1.90;;;9.30;63.40;;;;;;5072914;28;20031;-82
2021/05/31 03:10:07;;;;;;;7.38;1.80;;;9.40;63.30;;;;;;5072592;28;20381;-81
2021/05/31 03:12:34;;;;;;;2.67;1.70;;;9.50;62.90;;;;;;5071012;28;20025;-81
2021/05/31 03:15:00;;;;;;;2.83;1.53;;;9.50;62.70;;;;;;5072352;28;20028;-80
2021/05/31 03:17:26;;;;;;;2.88;1.58;;;9.60;62.70;;;;;;5072672;28;20012;-81
2021/05/31 03:19:53;;;;;;;3.58;1.67;;;9.70;62.20;;;;;;5072479;28;20485;-82
2021/05/31 03:22:18;;;;;;;6.10;1.80;;;9.80;62.00;;;;;;5072331;28;20020;-81
2021/05/31 03:24:44;;;;;;;2.05;1.48;;;9.80;61.80;;;;;;5072446;28;20040;-81
2021/05/31 03:27:26;;;;;;;4.90;1.95;;;9.70;61.70;;;;;;5072102;28;20112;-80
2021/05/31 03:29:51;;;;;;;2.03;1.25;;;9.80;61.50;;;;;;5071203;28;20040;-80
2021/05/31 03:32:17;;;;;;;6.25;2.00;;;9.90;61.50;;;;;;5072235;28;20017;-81
2021/05/31 03:34:43;;;;;;;8.55;1.98;;;9.80;61.40;;;;;;5073304;28;20078;-80
2021/05/31 03:37:09;;;;;;;2.60;1.50;;;9.80;61.50;;;;;;5076325;28;20032;-80
2021/05/31 03:39:35;;;;;;;3.78;1.90;;;9.70;61.80;;;;;;5072555;28;20028;-81
2021/05/31 03:42:02;;;;;;;5.38;2.03;;;9.70;61.70;;;;;;5072399;28;20023;-81
2021/05/31 03:44:28;;;;;;;4.32;1.70;;;9.60;61.50;;;;;;5070991;28;20081;-80
2021/05/31 03:46:54;;;;;;;5.20;1.85;;;9.60;61.80;;;;;;5072339;28;20469;-81
2021/05/31 03:49:19;;;;;;;4.57;1.70;;;9.60;62.20;;;;;;5072098;28;20035;-81
2021/05/31 03:51:45;;;;;;;5.43;1.83;;;9.60;61.90;;;;;;5073513;28;20028;-79
2021/05/31 03:54:14;;;;;;;5.03;1.63;;;9.60;62.00;;;;;;5074620;28;20028;-82
2021/05/31 03:56:40;;;;;;;4.90;1.65;;;9.60;61.50;;;;;;5072366;28;20025;-81
2021/05/31 03:59:06;;;;;;;3.65;1.70;;;9.60;61.50;;;;;;5071572;28;20023;-82
2021/05/31 04:01:33;;;;;;;4.78;1.90;;;9.50;61.70;;;;;;5070654;28;20501;-80
2021/05/31 04:04:00;;;;;;;6.75;1.73;;;9.40;62.60;;;;;;5072022;28;20032;-81
2021/05/31 04:11:33;;;;;;;6.03;1.75;;;9.40;62.40;;;;;;5071938;28;20044;-81
2021/05/31 04:12:00;;;;;;;4.40;1.85;;;9.40;63.00;;;;;;5074267;28;20031;-79
2021/05/31 04:14:26;;;;;;;2.83;1.85;;;9.40;62.50;;;;;;5071876;28;20025;-80
2021/05/31 04:16:57;;;;;;;5.63;2.08;;;9.40;62.80;;;;;;5072569;28;20032;-81
2021/05/31 04:19:25;;;;;;;6.70;1.92;;;9.40;62.60;;;;;;5073218;28;20035;-80
2021/05/31 04:21:52;;;;;;;4.82;2.10;;;9.40;62.70;;;;;;5069429;28;20501;-79
2021/05/31 04:24:19;;;;;;;9.70;2.00;;;9.50;62.80;;;;;;5072408;28;20124;-80
2021/05/31 04:26:46;;;;;;;3.65;1.88;;;9.60;62.40;;;;;;5072701;28;20036;-82
2021/05/31 04:29:14;;;;;;;5.45;1.50;;;9.80;62.50;;;;;;5068882;28;20092;-82
2021/05/31 04:31:41;;;;;;;5.13;1.73;;;10.00;62.10;;;;;;5072951;28;20017;-83
2021/05/31 04:34:09;;;;;;;3.33;1.95;;;10.10;61.70;;;;;;5075972;28;20062;-82
2021/05/31 04:36:35;;;;;;;3.38;1.55;;;10.20;61.30;;;;;;5079661;28;20048;-83
2021/05/31 04:39:05;;;;;;;5.00;2.05;;;10.30;60.80;;;;;;5078502;28;20387;-83
2021/05/31 04:41:31;;;;;;;6.45;1.88;;;10.30;60.90;;;;;;5075865;28;20024;-81
2021/05/31 04:43:57;;;;;;;5.63;2.45;;;10.50;60.70;;;;;;5064941;28;20033;-85
2021/05/31 04:46:24;;;;;;;2.60;1.50;;;10.70;60.20;;;;;;5076785;28;20069;-84
2021/05/31 04:48:49;;;;;;;8.15;2.38;;;10.90;59.80;;;;;;5077413;28;20029;-82
2021/05/31 04:51:15;;;;;;;5.95;2.03;;;10.90;59.40;;;;;;5087341;28;20477;-84
2021/05/31 04:53:42;;;;;;;3.50;2.03;;;10.80;58.80;;;;;;5077014;28;20044;-83
2021/05/31 04:56:11;;;;;;;4.63;1.80;;;10.80;59.10;;;;;;5076141;28;20471;-83
2021/05/31 04:58:37;;;;;;;8.75;2.42;;;11.10;58.80;;;;;;5076165;28;20028;-85
2021/05/31 05:01:03;;;;;;;8.38;2.15;;;11.40;57.90;;;;;;5077169;28;20096;-85
2021/05/31 05:03:29;;;;;;;3.42;2.10;;;11.40;57.60;;;;;;5066607;28;20037;-83
2021/05/31 05:05:55;;;;;;;6.85;2.22;;;11.50;57.20;;;;;;5078766;28;20035;-86
2021/05/31 05:08:20;;;;;;;2.90;1.85;;;11.70;57.00;;;;;;5089415;28;20036;-87
2021/05/31 05:10:46;;;;;;;5.13;1.50;;;11.70;56.50;;;;;;5086789;28;20032;-85
2021/05/31 05:13:12;;;;;;;10.93;2.05;;;11.80;56.90;;;;;;5076551;28;20024;-84
2021/05/31 05:15:39;;;;;;;3.95;1.65;;;11.90;56.60;;;;;;5076680;28;20166;-84
2021/05/31 05:18:05;;;;;;;7.78;2.38;;;11.80;56.50;;;;;;5077636;28;20044;-84
2021/05/31 05:20:33;;;;;;;4.82;2.22;;;11.80;56.40;;;;;;5081148;28;20135;-84
2021/05/31 05:23:01;;;;;;;4.13;1.92;;;11.90;57.00;;;;;;5088810;28;20101;-86
2021/05/31 05:25:28;;;;;;;6.03;1.73;;;12.10;56.60;;;;;;5090279;28;20012;-85
2021/05/31 05:27:54;;;;;;;4.43;1.90;;;12.10;56.00;;;;;;5083038;28;20045;-86
2021/05/31 05:30:25;;;;;;;5.68;2.00;;;12.10;55.60;;;;;;5078977;28;20021;-84
2021/05/31 05:32:53;;;;;;;4.72;1.75;;;12.20;55.70;;;;;;5079925;28;20036;-88
2021/05/31 05:48:36;;;;;;;3.15;1.65;;;12.70;54.60;;;;;;5076056;28;20530;-84
2021/05/31 05:51:05;;;;;;;7.05;2.28;;;12.80;53.40;;;;;;5076871;28;20028;-82
2021/05/31 05:53:42;;;;;;;7.20;2.10;;;12.50;54.00;;;;;;5080944;28;20024;-83
2021/05/31 05:56:21;;;;;;;6.57;2.63;;;12.60;54.80;;;;;;5066878;28;20020;-84
2021/05/31 05:58:51;;;;;;;3.78;1.85;;;12.80;54.50;;;;;;5068834;28;20128;-82
2021/05/31 06:01:17;;;;;;;4.80;2.15;;;12.60;53.30;;;;;;5059884;28;20020;-84
2021/05/31 06:03:43;;;;;;;6.00;2.00;;;12.50;54.00;;;;;;5074727;28;20119;-85
2021/05/31 06:06:09;;;;;;;6.10;1.90;;;12.60;54.20;;;;;;5075081;28;20063;-84
2021/05/31 06:08:36;;;;;;;15.68;2.78;;;12.70;53.60;;;;;;5075579;28;20485;-87
2021/05/31 06:11:03;;;;;;;4.65;2.60;;;12.80;53.30;;;;;;5079789;28;20039;-82
2021/05/31 06:13:29;;;;;;;10.23;2.58;;;12.80;53.20;;;;;;5073904;28;20428;-84
2021/05/31 06:16:00;;;;;;;3.78;1.90;;;12.70;53.60;;;;;;5075436;28;20029;-83
2021/05/31 06:18:26;;;;;;;4.70;1.95;;;12.70;53.80;;;;;;5074306;28;20043;-84
2021/05/31 06:20:52;;;;;;;4.53;1.92;;;12.80;54.40;;;;;;5074392;28;20029;-83
2021/05/31 06:23:18;;;;;;;3.17;1.80;;;12.70;53.80;;;;;;5074156;28;20036;-85
2021/05/31 06:25:44;;;;;;;13.82;2.58;;;12.50;53.90;;;;;;5073800;28;20099;-86
2021/05/31 06:28:10;;;;;;;5.45;1.95;;;12.60;54.30;;;;;;5074844;28;20093;-84
2021/05/31 06:30:36;;;;;;;6.20;1.90;;;12.70;53.50;;;;;;5074287;28;20436;-82
2021/05/31 06:33:03;;;;;;;6.53;2.80;;;12.90;53.50;;;;;;5073768;28;20028;-84
2021/05/31 06:35:30;;;;;;;6.25;3.15;;;13.00;53.50;;;;;;5073511;28;20125;-84
2021/05/31 06:37:57;;;;;;;7.13;2.55;;;13.10;52.90;;;;;;5073445;28;20028;-85
2021/05/31 06:40:24;;;;;;;4.00;2.10;;;12.80;53.00;;;;;;5073511;28;20082;-84
2021/05/31 06:42:50;;;;;;;5.63;2.38;;;12.90;53.80;;;;;;5073558;28;20059;-84
2021/05/31 06:45:22;;;;;;;6.50;2.92;;;13.20;53.90;;;;;;5072129;28;20067;-84
2021/05/31 06:47:48;;;;;;;9.35;2.42;;;13.50;52.40;;;;;;5077160;28;20531;-82
2021/05/31 06:50:14;;;;;;;10.10;2.75;;;13.80;52.20;;;;;;5072860;28;20028;-82
2021/05/31 06:52:40;;;;;;;12.43;3.17;;;14.10;51.30;;;;;;5073587;28;20395;-85
2021/05/31 06:55:07;;;;;;;11.57;2.83;;;14.60;50.80;;;;;;5075278;28;20025;-85
2021/05/31 06:57:34;;;;;;;10.68;2.25;;;15.00;49.40;;;;;;5073501;28;20060;-83
2021/05/31 06:59:59;;;;;;;5.03;2.33;;;15.20;48.50;;;;;;5073640;28;20111;-82
2021/05/31 07:02:25;;;;;;;5.50;2.10;;;15.30;47.40;;;;;;5070802;28;20547;-84
2021/05/31 07:04:51;;;;;;;6.10;2.47;;;15.10;47.60;;;;;;5073540;28;20044;-82
2021/05/31 07:07:20;;;;;;;9.45;4.15;;;15.20;47.90;;;;;;5075137;28;20027;-87
2021/05/31 07:09:49;;;;;;;19.38;3.58;;;15.30;48.20;;;;;;5078143;28;20037;-86
2021/05/31 07:12:16;;;;;;;6.32;2.83;;;15.50;48.10;;;;;;5079029;28;20495;-87
2021/05/31 07:14:45;;;;;;;8.10;2.30;;;15.60;47.50;;;;;;5071764;28;20111;-81
2021/05/31 07:17:13;;;;;;;6.72;2.50;;;15.60;47.10;;;;;;5071876;28;20033;-81
2021/05/31 07:19:44;;;;;;;5.78;2.30;;;15.50;47.40;;;;;;5054984;28;20481;-83
2021/05/31 07:22:14;;;;;;;5.78;2.15;;;15.60;47.30;;;;;;5072179;28;20048;-83
2021/05/31 07:24:41;;;;;;;10.38;2.78;;;16.00;46.60;;;;;;5071739;28;20067;-82
2021/05/31 07:27:07;;;;;;;4.95;2.22;;;16.50;45.70;;;;;;5072832;28;20044;-82
2021/05/31 07:29:33;;;;;;;12.32;2.58;;;16.90;44.40;;;;;;5073563;28;20025;-83
2021/05/31 07:31:59;;;;;;;9.27;2.25;;;17.20;43.60;;;;;;5073004;28;20481;-84
2021/05/31 07:34:24;;;;;;;10.77;1.98;;;17.20;43.60;;;;;;5068592;28;20542;-83
2021/05/31 07:36:50;;;;;;;11.00;2.63;;;16.80;43.60;;;;;;5074110;28;20020;-83
2021/05/31 07:39:16;;;;;;;6.85;2.33;;;16.60;44.00;;;;;;5077207;28;20369;-84
2021/05/31 07:41:42;;;;;;;5.55;2.22;;;16.50;44.20;;;;;;5074565;28;20523;-84
2021/05/31 07:44:11;;;;;;;10.43;2.28;;;16.90;44.40;;;;;;5072342;28;20032;-83
2021/05/31 07:46:37;;;;;;;4.35;2.15;;;17.40;43.20;;;;;;5073178;28;20038;-83
2021/05/31 07:49:03;;;;;;;9.80;2.35;;;17.80;40.90;;;;;;5072901;28;20111;-83
2021/05/31 07:51:32;;;;;;;7.50;2.42;;;17.30;41.40;;;;;;5073496;28;20031;-83
2021/05/31 07:53:58;;;;;;;6.78;2.50;;;16.80;41.80;;;;;;5072019;28;20024;-83
2021/05/31 07:56:26;;;;;;;11.15;2.15;;;16.20;43.60;;;;;;5071926;28;20024;-83
2021/05/31 07:58:54;;;;;;;6.70;1.50;;;15.70;44.00;;;;;;5071933;28;20043;-84
2021/05/31 08:01:21;;;;;;;8.80;2.10;;;15.30;44.80;;;;;;5057767;28;20471;-82
2021/05/31 08:03:47;;;;;;;3.23;1.83;;;14.80;45.80;;;;;;5075721;28;20090;-83
2021/05/31 08:06:13;;;;;;;10.10;2.58;;;14.70;46.40;;;;;;5077162;28;20481;-85
2021/05/31 08:08:41;;;;;;;5.50;2.20;;;14.60;46.00;;;;;;5081346;28;20377;-80
2021/05/31 08:11:07;;;;;;;;;;;14.60;46.70;;;;;;5080889;28;20100;-84
2021/05/31 08:13:34;;;;;;;9.20;2.55;;;14.60;46.80;;;;;;5079142;28;19931;-83
2021/05/31 08:16:00;;;;;;;2.67;1.60;;;14.70;46.50;;;;;;5077345;28;20098;-83
2021/05/31 08:18:27;;;;;;;5.53;2.08;;;14.80;45.90;;;;;;5076247;28;20032;-83
2021/05/31 08:20:53;;;;;;;7.93;2.20;;;14.90;45.40;;;;;;5075715;28;20612;-84
2021/05/31 08:23:19;;;;;;;8.10;2.25;;;15.00;44.90;;;;;;5077335;28;20040;-86
2021/05/31 08:25:46;;;;;;;4.40;1.35;;;15.20;44.80;;;;;;5075950;28;20499;-84
2021/05/31 08:28:12;;;;;;;2.05;1.42;;;15.50;42.60;;;;;;5076204;28;20029;-85
2021/05/31 08:30:40;;;;;;;5.05;1.20;;;16.00;41.20;;;;;;5075443;28;20047;-85
2021/05/31 08:33:10;;;;;;;5.18;1.98;;;16.60;39.70;;;;;;5074745;28;20020;-83
2021/05/31 08:35:38;;;;;;;5.72;1.60;;;16.60;39.50;;;;;;5075573;28;20013;-85
2021/05/31 08:38:04;;;;;;;;;;;16.50;39.20;;;;;;5076035;28;20430;-81
2021/05/31 08:40:30;;;;;;;2.53;1.50;;;16.40;40.30;;;;;;5075359;28;20327;-83
2021/05/31 08:43:04;;;;;;;9.88;2.30;;;16.20;39.80;;;;;;5075114;28;20023;-83
2021/05/31 08:45:31;;;;;;;6.85;2.08;;;15.90;39.80;;;;;;5074805;28;20181;-84
2021/05/31 08:47:58;;;;;;;5.65;2.22;;;15.80;40.90;;;;;;5075450;28;20445;-83
2021/05/31 08:50:28;;;;;;;4.22;2.00;;;16.00;40.10;;;;;;5075342;28;20441;-82
2021/05/31 08:52:56;;;;;;;6.07;2.05;;;16.00;40.10;;;;;;5075340;28;20090;-83
2021/05/31 08:55:25;;;;;;;4.88;1.63;;;15.90;40.40;;;;;;5074119;28;20143;-82
2021/05/31 08:57:51;;;;;;;1.98;1.40;;;15.80;40.50;;;;;;5075893;28;20020;-84
2021/05/31 09:00:20;;;;;;;3.35;1.90;;;15.50;40.10;;;;;;5075414;28;20032;-84
2021/05/31 09:02:47;;;;;;;2.08;1.42;;;15.00;41.60;;;;;;5075249;28;20016;-82
2021/05/31 09:05:13;;;;;;;1.80;1.35;;;14.60;42.10;;;;;;5075729;28;20028;-84
2021/05/31 09:07:46;;;;;;;5.30;1.67;;;14.30;42.40;;;;;;5073899;28;20027;-86
2021/05/31 09:10:12;;;;;;;2.40;1.50;;;14.20;42.80;;;;;;5074714;28;20020;-84
2021/05/31 09:12:38;;;;;;;4.93;1.83;;;14.20;43.20;;;;;;5074611;28;20095;-83
2021/05/31 09:15:10;;;;;;;2.65;1.42;;;14.20;43.20;;;;;;5084969;28;20035;-83
2021/05/31 09:17:39;;;;;;;5.80;1.63;;;14.10;43.60;;;;;;5076753;28;20070;-84
2021/05/31 09:20:07;;;;;;;3.45;1.83;;;13.90;43.90;;;;;;5081372;28;20035;-85
2021/05/31 09:22:44;;;;;;;4.70;1.70;;;13.80;44.40;;;;;;5084367;28;20021;-82
2021/05/31 09:25:10;;;;;;;4.53;1.77;;;13.80;44.20;;;;;;5081345;28;20047;-83
2021/05/31 09:27:36;;;;;;;5.47;2.15;;;13.90;44.50;;;;;;5075259;28;20128;-84
2021/05/31 09:30:07;;;;;;;5.85;1.98;;;14.10;44.70;;;;;;5075427;28;20356;-84
2021/05/31 09:32:34;;;;;;;6.45;1.73;;;14.20;43.90;;;;;;5075802;28;20024;-83
2021/05/31 09:35:07;;;;;;;7.88;2.35;;;14.00;43.60;;;;;;5075771;28;20078;-83
2021/05/31 09:37:44;;;;;;;7.63;2.08;;;13.90;44.30;;;;;;5076382;28;20056;-84
2021/05/31 09:40:10;;;;;;;5.90;1.93;;;13.80;44.50;;;;;;5078890;28;20092;-82
2021/05/31 09:42:48;;;;;;;5.00;1.85;;;13.90;44.40;;;;;;5083703;28;20701;-84
2021/05/31 09:45:14;;;;;;;2.88;1.40;;;13.80;43.70;;;;;;5075369;28;20555;-83
2021/05/31 09:47:42;;;;;;;3.63;1.25;;;13.70;44.40;;;;;;5075523;28;20056;-83
2021/05/31 09:50:09;;;;;;;7.05;1.80;;;13.80;44.30;;;;;;5078251;28;20120;-82
2021/05/31 09:52:36;;;;;;;5.15;1.40;;;13.90;43.80;;;;;;5074418;28;20017;-84
2021/05/31 09:55:09;;;;;;;4.70;2.95;;;13.80;43.80;;;;;;5074302;28;20021;-83
2021/05/31 09:57:37;;;;;;;5.63;1.95;;;13.90;44.30;;;;;;5074004;28;20017;-85
2021/05/31 10:00:17;;;;;;;6.25;2.17;;;14.10;44.40;;;;;;5074738;28;20035;-84
2021/05/31 10:08:40;;;;;;;6.40;2.42;;;14.00;43.90;;;;;;5078896;28;20017;-81
2021/05/31 10:10:42;;;;;;;5.80;2.10;;;14.00;44.00;;;;;;5065341;28;20048;-85
2021/05/31 10:13:08;;;;;;;10.35;2.78;;;14.10;43.90;;;;;;5073997;28;20120;-83
2021/05/31 10:15:39;;;;;;;4.28;2.42;;;14.10;43.80;;;;;;5073732;28;20028;-83
2021/05/31 10:18:06;;;;;;;6.30;2.00;;;14.30;43.70;;;;;;5074975;28;20020;-85
2021/05/31 10:20:32;;;;;;;3.22;1.30;;;14.20;43.00;;;;;;5077726;28;20044;-84
2021/05/31 10:22:59;;;;;;;12.27;10.20;;;14.20;43.70;;;;;;5077061;28;20104;-85
2021/05/31 10:25:27;;;;;;;5.95;2.05;;;14.30;44.40;;;;;;5072918;28;20025;-82
2021/05/31 10:28:10;;;;;;;2.88;1.50;;;14.60;44.10;;;;;;5073313;28;20063;-83
2021/05/31 10:30:44;;;;;;;2.92;1.15;;;14.70;43.20;;;;;;5073365;28;20032;-84
2021/05/31 10:33:22;;;;;;;2.65;1.42;;;14.60;43.30;;;;;;5073509;28;20033;-84
2021/05/31 10:35:49;;;;;;;3.08;2.00;;;14.40;43.60;;;;;;5073161;28;20016;-85
2021/05/31 10:38:18;;;;;;;5.28;2.42;;;14.40;43.80;;;;;;5074472;28;20100;-84
2021/05/31 10:40:49;;;;;;;8.23;2.03;;;14.30;44.10;;;;;;5073243;28;20021;-84
2021/05/31 10:43:19;;;;;;;5.05;1.75;;;14.40;44.70;;;;;;5073002;28;20033;-83
2021/05/31 10:45:50;;;;;;;3.33;1.27;;;14.70;44.10;;;;;;5072180;28;20020;-84
2021/05/31 10:48:19;;;;;;;3.65;1.45;;;14.80;43.00;;;;;;5074826;28;20020;-83
2021/05/31 10:50:49;;;;;;;4.88;2.15;;;14.90;42.40;;;;;;5071914;28;20115;-84
2021/05/31 10:53:30;;;;;;;6.65;2.55;;;14.90;41.60;;;;;;5073223;28;20024;-84
2021/05/31 10:56:01;;;;;;;3.88;1.95;;;15.20;41.80;;;;;;5074496;28;20104;-84
2021/05/31 10:58:36;;;;;;;4.53;2.00;;;15.70;40.40;;;;;;5073331;28;20554;-84
2021/05/31 11:01:12;;;;;;;5.18;1.50;;;15.90;40.50;;;;;;5073071;28;20021;-84
2021/05/31 11:04:15;;;;;;;3.25;1.27;;;16.10;38.40;;;;;;5073142;28;20039;-84
2021/05/31 11:06:53;;;;;;;5.57;1.90;;;16.10;39.00;;;;;;5075319;28;20017;-82
2021/05/31 11:09:26;;;;;;;9.02;1.65;;;16.30;39.80;;;;;;5061698;28;20067;-83
2021/05/31 11:11:57;;;;;;;4.53;2.15;;;16.60;39.80;;;;;;5073645;28;20044;-83
2021/05/31 11:14:49;;;;;;;3.78;1.65;;;17.00;38.90;;;;;;5072978;28;20474;-82
2021/05/31 11:17:18;;;;;;;7.05;1.58;;;17.10;38.50;;;;;;5070123;28;20032;-82
2021/05/31 11:19:47;;;;;;;6.25;1.27;;;16.60;38.40;;;;;;5073154;28;20096;-84
2021/05/31 11:22:13;;;;;;;5.40;2.20;;;16.30;38.60;;;;;;5072405;28;20027;-84
2021/05/31 11:24:47;;;;;;;7.40;1.73;;;16.30;39.40;;;;;;5077548;28;20461;-83
2021/05/31 11:27:16;;;;;;;7.72;2.00;;;16.40;39.00;;;;;;5075533;28;20410;-84
2021/05/31 11:29:42;;;;;;;1.80;1.40;;;16.10;39.10;;;;;;5073651;28;20473;-82
2021/05/31 11:32:10;;;;;;;4.13;1.48;;;15.90;39.20;;;;;;5075457;28;20016;-83
2021/05/31 11:34:40;;;;;;;3.05;1.75;;;16.10;39.40;;;;;;5063207;28;20409;-83
2021/05/31 11:37:06;;;;;;;4.82;1.95;;;16.30;39.60;;;;;;5074541;28;20028;-83
2021/05/31 11:39:33;;;;;;;3.08;1.70;;;16.50;39.30;;;;;;5079533;28;20025;-82
2021/05/31 11:41:59;;;;;;;3.60;1.75;;;16.60;39.10;;;;;;5078938;28;20024;-84
2021/05/31 11:44:30;;;;;;;7.35;1.92;;;16.10;40.00;;;;;;5077973;28;20036;-83
2021/05/31 11:46:58;;;;;;;3.72;1.60;;;16.30;39.90;;;;;;5080425;28;20013;-84
2021/05/31 11:49:25;;;;;;;2.38;1.52;;;16.50;39.60;;;;;;5080121;28;20025;-83
2021/05/31 11:52:01;;;;;;;;;;;16.50;39.70;;;;;;5080505;28;20036;-84
2021/05/31 11:54:30;;;;;;;4.63;2.13;;;16.60;40.30;;;;;;5080216;28;19904;-86
2021/05/31 11:57:06;;;;;;;7.47;2.45;;;16.70;39.80;;;;;;5079097;28;20070;-84
2021/05/31 11:59:41;;;;;;;7.38;2.72;;;16.60;39.30;;;;;;5079698;28;20047;-84
2021/05/31 12:02:13;;;;;;;5.13;1.77;;;16.40;39.80;;;;;;5079528;28;20107;-83
2021/05/31 12:04:41;;;;;;;4.30;1.80;;;16.40;39.20;;;;;;5078819;28;20047;-84
2021/05/31 12:07:10;;;;;;;5.15;2.15;;;16.30;39.20;;;;;;5080935;28;20092;-84
2021/05/31 12:09:44;;;;;;;3.28;1.50;;;16.30;39.50;;;;;;5078836;28;20028;-84
2021/05/31 12:12:20;;;;;;;8.13;1.88;;;16.40;39.80;;;;;;5078623;28;20051;-84
2021/05/31 12:14:51;;;;;;;12.97;2.77;;;16.30;40.10;;;;;;5078525;28;20089;-84
2021/05/31 12:17:19;;;;;;;10.18;1.98;;;16.30;40.40;;;;;;5078790;28;20017;-83
2021/05/31 12:19:47;;;;;;;6.00;2.00;;;16.10;39.90;;;;;;5078965;28;20059;-83
2021/05/31 12:22:13;;;;;;;6.75;1.90;;;15.70;40.70;;;;;;5078744;28;20046;-83
2021/05/31 12:24:45;;;;;;;9.52;2.15;;;15.50;41.40;;;;;;5078920;28;20031;-83
2021/05/31 12:27:12;;;;;;;5.18;1.45;;;15.50;41.20;;;;;;5078736;28;20386;-85
2021/05/31 12:29:38;;;;;;;;;;;15.60;41.80;;;;;;5079078;28;20024;-84
2021/05/31 12:32:07;;;;;;;6.88;1.63;;;15.50;41.90;;;;;;5078326;28;20288;-84
2021/05/31 12:34:34;;;;;;;5.15;1.77;;;15.30;42.40;;;;;;5078865;28;20083;-84
2021/05/31 12:37:01;;;;;;;3.42;2.10;;;15.10;42.70;;;;;;5078715;28;20012;-84
2021/05/31 12:39:27;;;;;;;;;;;14.80;43.60;;;;;;5079194;28;20047;-84
2021/05/31 12:41:54;;;;;;;3.13;1.77;;;14.60;43.80;;;;;;5081503;28;20361;-82
2021/05/31 12:44:22;;;;;;;8.95;1.77;;;14.40;44.20;;;;;;5078993;28;20024;-83
2021/05/31 12:46:48;;;;;;;;;;;14.20;44.40;;;;;;5078370;28;20028;-83
2021/05/31 12:49:15;;;;;;;3.08;1.65;;;14.20;44.40;;;;;;5074914;28;19904;-84
2021/05/31 12:51:57;;;;;;;10.45;2.50;;;14.20;44.80;;;;;;5075608;28;20024;-84
2021/05/31 12:54:23;;;;;;;5.63;1.95;;;14.30;44.90;;;;;;5075299;28;20021;-83
2021/05/31 12:56:52;;;;;;;5.55;1.90;;;14.40;44.70;;;;;;5076323;28;20393;-84
2021/05/31 12:59:25;;;;;;;9.73;2.47;;;14.40;45.00;;;;;;5078370;28;20024;-84
2021/05/31 13:01:51;;;;;;;8.05;3.15;;;14.40;45.30;;;;;;5087229;28;20024;-84
2021/05/31 13:04:28;;;;;;;6.30;2.65;;;14.30;45.40;;;;;;5082466;28;20058;-83
2021/05/31 13:06:54;;;;;;;4.68;1.90;;;14.40;45.30;;;;;;5076738;28;20032;-83
2021/05/31 13:09:25;;;;;;;8.63;2.70;;;14.50;44.60;;;;;;5076095;28;20028;-84
2021/05/31 13:11:53;;;;;;;3.95;2.08;;;14.40;45.20;;;;;;5069877;28;20477;-83
2021/05/31 13:14:23;;;;;;;2.50;1.73;;;14.30;45.40;;;;;;5068172;28;20111;-83
2021/05/31 13:16:55;;;;;;;6.03;2.47;;;14.30;45.30;;;;;;5077383;28;20396;-84
2021/05/31 13:19:22;;;;;;;7.63;2.92;;;14.40;45.50;;;;;;5078911;28;20119;-84
2021/05/31 13:21:56;;;;;;;7.03;2.45;;;14.40;46.20;;;;;;5083888;28;20039;-86